createdAt,value
2017-08-25T00:01:34.840Z,16.70
2017-08-25T00:04:02.297Z,16.70
2017-08-25T00:06:29.741Z,16.80
2017-08-25T00:08:57.196Z,16.90
2017-08-25T00:11:24.682Z,16.90
2017-08-25T00:13:52.225Z,16.90
2017-08-25T00:16:21.299Z,16.90
2017-08-25T00:18:48.763Z,16.90
2017-08-25T00:21:16.408Z,17.00
2017-08-25T00:23:43.997Z,17.10
2017-08-25T00:26:11.446Z,17.10
2017-08-25T00:28:38.934Z,17.10
2017-08-25T00:31:06.387Z,17.20
2017-08-25T00:33:33.923Z,17.20
2017-08-25T00:36:01.482Z,17.20
2017-08-25T00:38:28.925Z,17.20
2017-08-25T00:40:56.386Z,17.20
2017-08-25T00:43:23.845Z,17.10
2017-08-25T00:45:51.297Z,17.00
2017-08-25T00:48:18.757Z,16.90
2017-08-25T00:50:46.217Z,16.90
2017-08-25T00:53:13.786Z,16.90
2017-08-25T00:55:41.245Z,16.90
2017-08-25T00:58:08.706Z,17.00
2017-08-25T01:00:36.165Z,17.10
2017-08-25T01:03:03.615Z,17.00
2017-08-25T01:05:31.090Z,17.00
2017-08-25T01:07:58.626Z,17.00
2017-08-25T01:10:26.085Z,16.90
2017-08-25T01:12:53.635Z,16.90
2017-08-25T01:15:21.087Z,17.00
2017-08-25T01:17:48.572Z,17.10
2017-08-25T01:20:16.114Z,17.10
2017-08-25T01:22:43.580Z,17.30
2017-08-25T01:25:11.039Z,17.20
2017-08-25T01:27:38.582Z,17.10
2017-08-25T01:30:06.033Z,16.90
2017-08-25T01:32:33.508Z,17.10
2017-08-25T01:35:01.052Z,17.20
2017-08-25T01:37:28.519Z,17.10
2017-08-25T01:39:55.979Z,17.00
2017-08-25T01:42:23.446Z,16.90
2017-08-25T01:44:50.893Z,16.80
2017-08-25T01:47:18.354Z,17.00
2017-08-25T01:49:45.893Z,16.90
2017-08-25T01:52:13.457Z,17.10
2017-08-25T01:54:40.913Z,17.00
2017-08-25T01:57:08.372Z,16.90
2017-08-25T01:59:35.829Z,16.90
2017-08-25T02:02:03.306Z,17.00
2017-08-25T02:04:30.761Z,17.10
2017-08-25T02:06:58.204Z,17.10
2017-08-25T02:09:25.658Z,17.00
2017-08-25T02:11:53.215Z,16.90
2017-08-25T02:14:20.677Z,16.90
2017-08-25T02:16:48.130Z,16.80
2017-08-25T02:19:15.602Z,16.80
2017-08-25T02:21:48.812Z,16.70
2017-08-25T02:24:16.270Z,16.70
2017-08-25T02:26:43.717Z,16.70
2017-08-25T02:29:11.233Z,16.60
2017-08-25T02:31:38.810Z,16.60
2017-08-25T02:34:06.274Z,16.50
2017-08-25T02:36:33.821Z,16.40
2017-08-25T02:39:01.284Z,16.40
2017-08-25T02:41:28.741Z,16.40
2017-08-25T02:43:56.201Z,16.40
2017-08-25T02:46:23.673Z,16.50
2017-08-25T02:48:51.892Z,16.60
2017-08-25T02:51:19.347Z,16.60
2017-08-25T02:53:46.830Z,16.60
2017-08-25T02:56:14.290Z,16.50
2017-08-25T02:58:45.715Z,16.60
2017-08-25T03:01:13.159Z,16.50
2017-08-25T03:03:42.512Z,16.30
2017-08-25T03:06:10.055Z,16.20
2017-08-25T03:08:37.536Z,16.20
2017-08-25T03:11:05.750Z,16.40
2017-08-25T03:13:33.207Z,16.30
2017-08-25T03:16:00.670Z,16.40
2017-08-25T03:18:28.130Z,16.30
2017-08-25T03:20:55.592Z,16.20
2017-08-25T03:23:23.041Z,16.10
2017-08-25T03:25:50.808Z,16.00
2017-08-25T03:28:18.274Z,16.00
2017-08-25T03:30:45.747Z,16.00
2017-08-25T03:33:13.206Z,15.90
2017-08-25T03:35:40.660Z,15.80
2017-08-25T03:38:08.118Z,16.00
2017-08-25T03:40:35.576Z,16.00
2017-08-25T03:43:03.038Z,16.10
2017-08-25T03:45:30.554Z,16.20
2017-08-25T03:47:58.008Z,16.10
2017-08-25T03:50:25.466Z,16.00
2017-08-25T03:52:52.935Z,15.90
2017-08-25T03:55:20.512Z,15.80
2017-08-25T03:57:47.969Z,15.80
2017-08-25T04:00:17.349Z,15.80
2017-08-25T04:02:44.825Z,15.90
2017-08-25T04:05:12.281Z,16.10
2017-08-25T04:07:39.742Z,16.00
2017-08-25T04:10:07.213Z,16.00
2017-08-25T04:12:34.666Z,15.90
2017-08-25T04:15:02.126Z,15.80
2017-08-25T04:17:29.586Z,15.70
2017-08-25T04:19:57.034Z,15.70
2017-08-25T04:22:24.584Z,15.60
2017-08-25T04:24:52.045Z,15.60
2017-08-25T04:27:19.507Z,15.50
2017-08-25T04:29:46.967Z,15.60
2017-08-25T04:32:14.427Z,15.60
2017-08-25T04:34:41.942Z,15.60
2017-08-25T04:37:09.519Z,15.70
2017-08-25T04:39:36.974Z,15.80
2017-08-25T04:42:04.433Z,15.70
2017-08-25T04:44:31.997Z,15.70
2017-08-25T04:46:59.460Z,15.80
2017-08-25T04:49:26.997Z,15.90
2017-08-25T04:51:54.453Z,15.80
2017-08-25T04:54:22.254Z,15.80
2017-08-25T04:56:49.709Z,15.90
2017-08-25T04:59:17.157Z,16.00
2017-08-25T05:01:44.694Z,16.00
2017-08-25T05:04:12.157Z,16.10
2017-08-25T05:06:41.049Z,16.30
2017-08-25T05:09:08.502Z,16.60
2017-08-25T05:11:35.961Z,16.70
2017-08-25T05:14:03.514Z,16.90
2017-08-25T05:16:30.958Z,16.90
2017-08-25T05:18:58.421Z,17.10
2017-08-25T05:21:25.989Z,17.00
2017-08-25T05:23:53.454Z,16.70
2017-08-25T05:26:20.910Z,16.40
2017-08-25T05:28:48.374Z,16.40
2017-08-25T05:31:15.826Z,16.40
2017-08-25T05:33:43.293Z,16.30
2017-08-25T05:36:10.744Z,16.30
2017-08-25T05:38:38.199Z,16.40
2017-08-25T05:41:05.658Z,16.60
2017-08-25T05:43:33.884Z,16.60
2017-08-25T05:46:01.341Z,16.60
2017-08-25T05:48:28.817Z,16.80
2017-08-25T05:50:56.270Z,17.00
2017-08-25T05:53:23.727Z,17.30
2017-08-25T05:55:51.180Z,17.40
2017-08-25T05:58:18.631Z,17.70
2017-08-25T06:00:46.089Z,17.80
2017-08-25T06:03:13.537Z,18.00
2017-08-25T06:05:41.013Z,18.10
2017-08-25T06:08:08.470Z,18.30
2017-08-25T06:10:36.030Z,18.30
2017-08-25T06:13:03.504Z,18.50
2017-08-25T06:15:30.954Z,18.40
2017-08-25T06:17:58.413Z,18.80
2017-08-25T06:20:25.874Z,19.00
2017-08-25T06:22:53.418Z,19.40
2017-08-25T06:25:20.874Z,19.70
2017-08-25T06:27:48.433Z,19.80
2017-08-25T06:30:15.887Z,19.80
2017-08-25T06:32:43.354Z,19.80
2017-08-25T06:35:10.818Z,19.50
2017-08-25T06:37:38.265Z,19.40
2017-08-25T06:40:05.732Z,19.50
2017-08-25T06:42:33.282Z,19.60
2017-08-25T06:45:00.743Z,19.70
2017-08-25T06:47:28.291Z,19.90
2017-08-25T06:49:55.764Z,20.20
2017-08-25T06:52:23.297Z,20.30
2017-08-25T06:54:50.767Z,20.20
2017-08-25T06:57:18.325Z,20.20
2017-08-25T06:59:45.782Z,20.20
2017-08-25T07:02:13.244Z,20.10
2017-08-25T07:04:40.699Z,20.30
2017-08-25T07:07:08.176Z,20.50
2017-08-25T07:09:36.398Z,20.30
2017-08-25T07:12:03.858Z,20.40
2017-08-25T07:14:31.572Z,20.20
2017-08-25T07:16:59.098Z,20.20
2017-08-25T07:19:26.557Z,20.00
2017-08-25T07:21:54.017Z,20.20
2017-08-25T07:24:21.485Z,20.20
2017-08-25T07:26:48.941Z,20.20
2017-08-25T07:29:16.486Z,20.30
2017-08-25T07:31:43.942Z,20.60
2017-08-25T07:34:11.497Z,20.80
2017-08-25T07:36:38.941Z,21.00
2017-08-25T07:39:06.501Z,21.30
2017-08-25T07:41:34.070Z,21.50
2017-08-25T07:44:01.621Z,21.70
2017-08-25T07:46:29.082Z,22.00
2017-08-25T07:48:56.534Z,22.00
2017-08-25T07:51:24.097Z,22.20
2017-08-25T07:53:51.551Z,22.20
2017-08-25T07:56:19.116Z,22.40
2017-08-25T07:58:46.676Z,22.50
2017-08-25T08:01:14.122Z,22.40
2017-08-25T08:03:41.578Z,22.60
2017-08-25T08:06:09.270Z,22.70
2017-08-25T08:08:36.803Z,22.60
2017-08-25T08:11:04.257Z,22.80
2017-08-25T08:13:31.829Z,22.70
2017-08-25T08:15:59.287Z,22.90
2017-08-25T08:18:26.739Z,23.00
2017-08-25T08:20:54.185Z,23.10
2017-08-25T08:23:21.744Z,23.30
2017-08-25T08:25:49.185Z,23.50
2017-08-25T08:28:16.659Z,23.70
2017-08-25T08:30:44.105Z,23.70
2017-08-25T08:33:11.563Z,23.60
2017-08-25T08:35:39.846Z,24.00
2017-08-25T08:38:07.401Z,24.00
2017-08-25T08:40:34.846Z,23.90
2017-08-25T08:43:02.305Z,24.00
2017-08-25T08:45:29.784Z,24.10
2017-08-25T08:47:57.251Z,24.30
2017-08-25T08:50:24.696Z,24.40
2017-08-25T08:52:52.145Z,24.70
2017-08-25T08:55:19.596Z,24.70
2017-08-25T08:57:47.054Z,24.70
2017-08-25T09:00:14.511Z,24.80
2017-08-25T09:02:42.070Z,25.00
2017-08-25T09:05:10.293Z,24.70
2017-08-25T09:07:37.744Z,24.70
2017-08-25T09:10:05.193Z,25.00
2017-08-25T09:12:32.638Z,25.20
2017-08-25T09:15:00.090Z,25.30
2017-08-25T09:17:27.538Z,25.60
2017-08-25T09:19:55.009Z,25.80
2017-08-25T09:22:22.454Z,25.80
2017-08-25T09:24:49.904Z,25.90
2017-08-25T09:27:17.362Z,26.20
2017-08-25T09:29:44.810Z,26.30
2017-08-25T09:32:12.369Z,26.40
2017-08-25T09:34:39.817Z,26.30
2017-08-25T09:37:07.277Z,26.20
2017-08-25T09:39:34.730Z,26.20
2017-08-25T09:42:02.189Z,26.20
2017-08-25T09:44:29.657Z,26.30
2017-08-25T09:46:57.119Z,26.20
2017-08-25T09:49:24.634Z,26.50
2017-08-25T09:51:52.094Z,26.70
2017-08-25T09:54:19.568Z,26.80
2017-08-25T09:56:47.021Z,26.60
2017-08-25T09:59:14.469Z,26.50
2017-08-25T10:01:41.925Z,26.30
2017-08-25T10:04:09.410Z,26.10
2017-08-25T10:06:37.370Z,26.10
2017-08-25T10:09:04.922Z,26.10
2017-08-25T10:11:32.394Z,26.30
2017-08-25T10:13:59.856Z,26.40
2017-08-25T10:16:27.302Z,26.50
2017-08-25T10:18:54.760Z,26.50
2017-08-25T10:21:22.213Z,26.40
2017-08-25T10:23:49.674Z,26.60
2017-08-25T10:26:17.122Z,26.80
2017-08-25T10:28:44.578Z,26.60
2017-08-25T10:31:12.142Z,26.90
2017-08-25T10:33:46.146Z,27.20
2017-08-25T10:36:25.451Z,27.30
2017-08-25T10:39:04.698Z,27.40
2017-08-25T10:41:44.135Z,27.40
2017-08-25T10:44:23.410Z,27.20
2017-08-25T10:46:50.862Z,27.00
2017-08-25T10:49:18.313Z,27.00
2017-08-25T10:51:45.767Z,27.00
2017-08-25T10:54:13.222Z,27.20
2017-08-25T10:56:40.702Z,27.30
2017-08-25T10:59:08.154Z,27.10
2017-08-25T11:01:35.606Z,27.10
2017-08-25T11:04:03.057Z,27.00
2017-08-25T11:06:30.605Z,26.90
2017-08-25T11:08:58.442Z,27.00
2017-08-25T11:11:25.901Z,27.30
2017-08-25T11:13:53.345Z,27.40
2017-08-25T11:16:20.899Z,27.70
2017-08-25T11:18:48.325Z,27.50
2017-08-25T11:21:15.785Z,27.70
2017-08-25T11:23:43.297Z,27.70
2017-08-25T11:26:10.750Z,27.90
2017-08-25T11:28:38.202Z,27.70
2017-08-25T11:31:05.657Z,27.80
2017-08-25T11:33:33.120Z,27.70
2017-08-25T11:36:00.691Z,27.40
2017-08-25T11:38:28.134Z,27.70
2017-08-25T11:40:55.584Z,27.90
2017-08-25T11:43:23.029Z,28.00
2017-08-25T11:45:50.501Z,27.90
2017-08-25T11:48:17.966Z,27.90
2017-08-25T11:50:45.530Z,28.00
2017-08-25T11:53:12.985Z,28.00
2017-08-25T11:55:40.446Z,28.30
2017-08-25T11:58:07.905Z,28.40
2017-08-25T12:00:35.353Z,28.30
2017-08-25T12:03:02.814Z,28.00
2017-08-25T12:05:30.257Z,28.20
2017-08-25T12:07:57.714Z,28.50
2017-08-25T12:10:25.161Z,28.70
2017-08-25T12:12:53.464Z,28.30
2017-08-25T12:15:20.918Z,28.20
2017-08-25T12:17:48.369Z,28.30
2017-08-25T12:20:15.827Z,28.40
2017-08-25T12:22:43.290Z,28.50
2017-08-25T12:25:10.751Z,28.50
2017-08-25T12:27:38.194Z,28.70
2017-08-25T12:30:05.658Z,28.60
2017-08-25T12:32:33.109Z,28.60
2017-08-25T12:35:00.558Z,28.40
2017-08-25T12:37:28.014Z,28.70
2017-08-25T12:39:55.470Z,28.60
2017-08-25T12:42:23.031Z,28.80
2017-08-25T12:44:50.476Z,28.70
2017-08-25T12:47:17.937Z,28.90
2017-08-25T12:49:45.415Z,28.80
2017-08-25T12:52:12.891Z,28.90
2017-08-25T12:54:40.421Z,28.90
2017-08-25T12:57:07.883Z,29.00
2017-08-25T12:59:35.433Z,29.00
2017-08-25T13:02:02.894Z,29.10
2017-08-25T13:04:30.351Z,28.90
2017-08-25T13:06:57.894Z,28.80
2017-08-25T13:09:25.352Z,28.70
2017-08-25T13:11:52.806Z,29.10
2017-08-25T13:14:20.259Z,29.30
2017-08-25T13:16:47.727Z,29.40
2017-08-25T13:19:15.189Z,29.30
2017-08-25T13:21:42.637Z,29.50
2017-08-25T13:24:10.198Z,29.60
2017-08-25T13:26:37.758Z,29.60
2017-08-25T13:29:05.321Z,29.60
2017-08-25T13:31:33.504Z,29.60
2017-08-25T13:34:01.042Z,29.30
2017-08-25T13:36:28.493Z,29.50
2017-08-25T13:38:55.951Z,29.50
2017-08-25T13:41:23.412Z,29.40
2017-08-25T13:43:50.886Z,29.60
2017-08-25T13:46:18.425Z,29.30
2017-08-25T13:48:45.871Z,29.20
2017-08-25T13:51:13.321Z,29.50
2017-08-25T13:53:40.772Z,29.80
2017-08-25T13:56:08.993Z,29.80
2017-08-25T13:58:36.539Z,29.80
2017-08-25T14:01:04.083Z,30.00
2017-08-25T14:03:31.541Z,30.10
2017-08-25T14:05:59.002Z,30.20
2017-08-25T14:08:26.454Z,30.30
2017-08-25T14:10:54.011Z,30.20
2017-08-25T14:13:21.461Z,30.10
2017-08-25T14:15:49.031Z,30.00
2017-08-25T14:18:16.596Z,30.00
2017-08-25T14:20:44.120Z,29.80
2017-08-25T14:23:11.574Z,29.90
2017-08-25T14:25:39.063Z,30.00
2017-08-25T14:28:06.501Z,30.10
2017-08-25T14:30:33.970Z,29.70
2017-08-25T14:33:01.418Z,29.80
2017-08-25T14:35:28.874Z,29.80
2017-08-25T14:37:56.331Z,29.80
2017-08-25T14:40:23.786Z,29.90
2017-08-25T14:42:51.238Z,29.90
2017-08-25T14:45:18.715Z,29.70
2017-08-25T14:47:46.161Z,29.80
2017-08-25T14:50:13.618Z,30.00
2017-08-25T14:52:41.069Z,30.20
2017-08-25T14:55:08.554Z,30.40
2017-08-25T14:57:36.009Z,30.30
2017-08-25T15:00:03.641Z,30.10
2017-08-25T15:02:31.113Z,30.10
2017-08-25T15:04:58.569Z,29.90
2017-08-25T15:07:26.023Z,29.80
2017-08-25T15:09:53.472Z,29.80
2017-08-25T15:12:20.934Z,29.70
2017-08-25T15:14:48.382Z,29.60
2017-08-25T15:17:15.850Z,29.40
2017-08-25T15:19:43.414Z,29.40
2017-08-25T15:22:10.969Z,29.40
2017-08-25T15:24:38.528Z,29.50
2017-08-25T15:27:06.006Z,29.60
2017-08-25T15:29:33.453Z,29.80
2017-08-25T15:32:00.902Z,29.90
2017-08-25T15:34:28.353Z,30.20
2017-08-25T15:36:55.806Z,30.20
2017-08-25T15:39:23.265Z,30.30
2017-08-25T15:41:50.826Z,30.20
2017-08-25T15:44:18.381Z,30.10
2017-08-25T15:46:45.831Z,30.00
2017-08-25T15:49:13.285Z,29.90
2017-08-25T15:51:40.759Z,29.90
2017-08-25T15:54:08.973Z,30.00
2017-08-25T15:56:36.491Z,30.00
2017-08-25T15:59:03.950Z,30.00
2017-08-25T16:01:31.408Z,30.00
2017-08-25T16:03:58.954Z,30.10
2017-08-25T16:06:26.517Z,30.00
2017-08-25T16:08:53.979Z,30.00
2017-08-25T16:11:21.419Z,30.10
2017-08-25T16:13:48.990Z,30.00
2017-08-25T16:16:16.454Z,29.80
2017-08-25T16:18:43.906Z,29.60
2017-08-25T16:21:11.371Z,29.30
2017-08-25T16:23:38.829Z,29.10
2017-08-25T16:26:06.377Z,28.90
2017-08-25T16:28:33.826Z,28.70
2017-08-25T16:31:01.277Z,28.60
2017-08-25T16:33:28.834Z,28.40
2017-08-25T16:35:56.294Z,28.40
2017-08-25T16:38:23.748Z,28.40
2017-08-25T16:40:52.545Z,28.30
2017-08-25T16:43:19.998Z,28.30
2017-08-25T16:45:47.445Z,28.30
2017-08-25T16:48:15.004Z,28.30
2017-08-25T16:50:42.570Z,28.30
2017-08-25T16:53:10.017Z,28.30
2017-08-25T16:55:37.472Z,28.30
2017-08-25T16:58:04.922Z,28.30
2017-08-25T17:00:32.388Z,28.30
2017-08-25T17:02:59.839Z,28.30
2017-08-25T17:05:27.915Z,28.20
2017-08-25T17:07:55.374Z,28.20
2017-08-25T17:10:22.827Z,28.20
2017-08-25T17:12:50.282Z,28.20
2017-08-25T17:15:17.724Z,28.20
2017-08-25T17:17:45.176Z,28.10
2017-08-25T17:20:12.666Z,28.10
2017-08-25T17:22:40.125Z,28.00
2017-08-25T17:25:07.576Z,28.00
2017-08-25T17:27:35.022Z,28.00
2017-08-25T17:30:02.466Z,28.00
2017-08-25T17:32:29.932Z,27.90
2017-08-25T17:34:57.377Z,27.80
2017-08-25T17:37:24.850Z,27.70
2017-08-25T17:39:52.307Z,27.60
2017-08-25T17:42:19.866Z,27.50
2017-08-25T17:44:47.331Z,27.50
2017-08-25T17:47:14.800Z,27.30
2017-08-25T17:49:43.066Z,27.20
2017-08-25T17:52:10.534Z,27.20
2017-08-25T17:54:38.786Z,27.10
2017-08-25T17:57:06.246Z,27.00
2017-08-25T17:59:33.802Z,26.90
2017-08-25T18:02:01.269Z,26.80
2017-08-25T18:04:28.774Z,26.70
2017-08-25T18:06:56.224Z,26.70
2017-08-25T18:09:23.676Z,26.60
2017-08-25T18:11:51.121Z,26.40
2017-08-25T18:14:18.573Z,26.30
2017-08-25T18:16:46.110Z,26.20
2017-08-25T18:19:13.698Z,26.00
2017-08-25T18:21:41.229Z,25.80
2017-08-25T18:24:08.677Z,25.70
2017-08-25T18:26:36.134Z,25.70
2017-08-25T18:29:03.597Z,25.60
2017-08-25T18:31:31.041Z,25.60
2017-08-25T18:33:58.494Z,25.60
2017-08-25T18:36:25.938Z,25.50
2017-08-25T18:38:53.397Z,25.40
2017-08-25T18:41:20.847Z,25.30
2017-08-25T18:43:48.305Z,25.20
2017-08-25T18:46:15.782Z,25.10
2017-08-25T18:48:43.330Z,25.00
2017-08-25T18:51:10.787Z,24.80
2017-08-25T18:53:39.238Z,24.70
2017-08-25T18:56:06.695Z,24.60
2017-08-25T18:58:34.205Z,24.50
2017-08-25T19:01:01.655Z,24.40
2017-08-25T19:03:29.193Z,24.40
2017-08-25T19:05:56.654Z,24.30
2017-08-25T19:08:24.221Z,24.20
2017-08-25T19:10:51.771Z,24.20
2017-08-25T19:13:19.228Z,24.30
2017-08-25T19:15:46.696Z,24.30
2017-08-25T19:18:14.150Z,24.30
2017-08-25T19:20:41.698Z,24.30
2017-08-25T19:23:09.158Z,24.20
2017-08-25T19:25:36.713Z,24.20
2017-08-25T19:28:04.269Z,24.10
2017-08-25T19:30:31.725Z,24.00
2017-08-25T19:32:59.186Z,23.90
2017-08-25T19:35:26.647Z,23.80
2017-08-25T19:37:54.214Z,23.80
2017-08-25T19:40:21.692Z,23.70
2017-08-25T19:42:49.133Z,23.60
2017-08-25T19:45:16.765Z,23.50
2017-08-25T19:47:45.333Z,23.40
2017-08-25T19:50:14.297Z,23.20
2017-08-25T19:52:41.875Z,23.20
2017-08-25T19:55:09.330Z,23.10
2017-08-25T19:57:36.822Z,23.00
2017-08-25T20:00:05.253Z,22.90
2017-08-25T20:02:32.722Z,22.90
2017-08-25T20:05:00.180Z,22.80
2017-08-25T20:07:27.642Z,22.70
2017-08-25T20:09:55.102Z,22.60
2017-08-25T20:12:23.821Z,22.60
2017-08-25T20:14:51.278Z,22.50
2017-08-25T20:17:18.737Z,22.50
2017-08-25T20:19:46.277Z,22.40
2017-08-25T20:22:13.745Z,22.30
2017-08-25T20:24:41.203Z,22.20
2017-08-25T20:27:08.752Z,22.20
2017-08-25T20:29:36.319Z,22.10
2017-08-25T20:32:03.784Z,22.00
2017-08-25T20:34:31.846Z,21.90
2017-08-25T20:36:59.301Z,22.00
2017-08-25T20:39:28.365Z,22.00
2017-08-25T20:41:55.854Z,21.90
2017-08-25T20:44:23.545Z,21.90
2017-08-25T20:46:54.728Z,21.80
2017-08-25T20:49:25.898Z,21.80
2017-08-25T20:51:53.353Z,21.70
2017-08-25T20:54:20.810Z,21.70
2017-08-25T20:56:48.277Z,21.70
2017-08-25T20:59:15.729Z,21.60
2017-08-25T21:01:43.213Z,21.60
2017-08-25T21:04:13.714Z,21.60
2017-08-25T21:06:43.936Z,21.60
2017-08-25T21:09:13.599Z,21.60
2017-08-25T21:11:41.831Z,21.60
2017-08-25T21:14:09.289Z,21.70
2017-08-25T21:16:37.546Z,21.70
2017-08-25T21:19:05.099Z,21.70
2017-08-25T21:21:32.561Z,21.60
2017-08-25T21:24:00.024Z,21.40
2017-08-25T21:26:28.271Z,21.40
2017-08-25T21:28:55.725Z,21.40
2017-08-25T21:31:23.173Z,21.40
2017-08-25T21:33:54.105Z,21.40
2017-08-25T21:36:22.354Z,21.20
2017-08-25T21:38:51.487Z,21.20
2017-08-25T21:41:19.014Z,21.20
2017-08-25T21:43:46.518Z,21.20
2017-08-25T21:46:13.970Z,21.10
2017-08-25T21:48:44.299Z,21.00
2017-08-25T21:51:11.736Z,21.00
2017-08-25T21:53:41.384Z,21.00
2017-08-25T21:56:09.975Z,20.90
2017-08-25T21:58:39.557Z,20.80
2017-08-25T22:02:38.757Z,20.80
2017-08-25T22:05:06.185Z,20.70
2017-08-25T22:07:33.670Z,20.70
2017-08-25T22:10:01.150Z,20.70
2017-08-25T22:12:28.601Z,20.70
2017-08-25T22:14:56.054Z,20.70
2017-08-25T22:17:23.509Z,20.70
2017-08-25T22:19:51.055Z,20.80
2017-08-25T22:22:18.510Z,20.80
2017-08-25T22:24:46.069Z,20.80
2017-08-25T22:27:13.534Z,20.70
2017-08-25T22:29:40.987Z,20.70
2017-08-25T22:32:08.546Z,20.70
2017-08-25T22:34:35.999Z,20.70
2017-08-25T22:37:03.461Z,20.70
2017-08-25T22:39:31.019Z,20.70
2017-08-25T22:41:58.477Z,20.50
2017-08-25T22:44:25.936Z,20.40
2017-08-25T22:46:53.481Z,20.40
2017-08-25T22:49:21.728Z,20.40
2017-08-25T22:51:49.194Z,20.40
2017-08-25T22:54:16.642Z,20.40
2017-08-25T22:56:44.110Z,20.30
2017-08-25T22:59:11.577Z,20.30
2017-08-25T23:01:39.043Z,20.30
2017-08-25T23:04:06.509Z,20.10
2017-08-25T23:06:34.063Z,20.10
2017-08-25T23:09:01.530Z,20.00
2017-08-25T23:11:29.073Z,19.90
2017-08-25T23:13:56.634Z,19.90
2017-08-25T23:16:24.090Z,19.80
2017-08-25T23:18:51.655Z,19.80
2017-08-25T23:21:19.106Z,19.80
2017-08-25T23:23:46.588Z,19.70
2017-08-25T23:26:14.039Z,19.70
2017-08-25T23:28:41.494Z,19.70
2017-08-25T23:31:08.960Z,19.60
2017-08-25T23:33:36.401Z,19.60
2017-08-25T23:36:03.953Z,19.50
2017-08-25T23:38:31.496Z,19.40
2017-08-25T23:40:58.967Z,19.40
2017-08-25T23:43:26.438Z,19.40
2017-08-25T23:45:53.903Z,19.50
2017-08-25T23:48:21.361Z,19.40
2017-08-25T23:50:48.817Z,19.40
2017-08-25T23:53:16.269Z,19.30
2017-08-25T23:55:43.803Z,19.30
2017-08-25T23:58:11.261Z,19.30
